Time;durP1;ratioP1;P1;durP2;ratioP2;P2;SDS_P1;SDS_P2;PMS_P1;PMS_P2;Temp;Humidity;BMP_temperature;BMP_pressure;BME280_temperature;BME280_humidity;BME280_pressure;Samples;Min_cycle;Max_cycle;Signal;HPM_P1;HPM_P2
2022/05/05 00:02:09;;;;;;;4.63;3.03;;;16.50;54.60;;;;;;4925558;29;20119;-79
2022/05/05 00:04:35;;;;;;;3.90;2.70;;;16.50;54.70;;;;;;4942126;29;20043;-78
2022/05/05 00:07:02;;;;;;;4.63;2.60;;;16.40;54.70;;;;;;4941595;29;20050;-79
2022/05/05 00:09:29;;;;;;;4.68;2.70;;;16.40;54.80;;;;;;4957478;29;20059;-80
2022/05/05 00:14:40;;;;;;;3.10;2.35;;;16.30;54.90;;;;;;4958968;29;20039;-79
2022/05/05 00:17:10;;;;;;;3.80;2.50;;;16.30;54.90;;;;;;4926646;29;20130;-78
2022/05/05 00:19:38;;;;;;;3.33;2.38;;;16.30;55.00;;;;;;4957013;29;20047;-78
2022/05/05 00:22:05;;;;;;;4.25;2.63;;;16.20;55.00;;;;;;4959039;28;20437;-79
2022/05/05 00:24:32;;;;;;;3.63;2.58;;;16.20;55.10;;;;;;4957007;29;20102;-79
2022/05/05 00:26:58;;;;;;;3.85;2.30;;;16.20;55.10;;;;;;4957206;29;20494;-79
2022/05/05 00:29:24;;;;;;;3.63;2.40;;;16.10;55.20;;;;;;4941818;29;20042;-79
2022/05/05 00:31:50;;;;;;;3.85;2.78;;;16.10;55.20;;;;;;4941080;29;20062;-82
2022/05/05 00:34:17;;;;;;;3.58;2.30;;;16.10;55.20;;;;;;4956882;29;20082;-80
2022/05/05 00:36:43;;;;;;;4.15;2.70;;;16.10;55.20;;;;;;4956695;29;20020;-79
2022/05/05 00:39:12;;;;;;;4.65;2.45;;;16.10;55.30;;;;;;4956642;29;20031;-78
2022/05/05 00:41:42;;;;;;;3.53;2.25;;;16.00;55.20;;;;;;4956789;29;20031;-79
2022/05/05 00:44:08;;;;;;;3.72;2.58;;;16.00;55.30;;;;;;4957010;29;20062;-78
2022/05/05 00:46:34;;;;;;;4.03;2.70;;;15.90;55.20;;;;;;4940625;28;20038;-78
2022/05/05 00:49:02;;;;;;;3.67;2.40;;;16.00;55.40;;;;;;4957942;29;20106;-78
2022/05/05 00:51:28;;;;;;;3.88;2.70;;;15.90;55.30;;;;;;4940577;29;20042;-79
2022/05/05 00:53:57;;;;;;;5.20;2.70;;;15.90;55.40;;;;;;4940809;29;20042;-79
2022/05/05 00:56:24;;;;;;;4.70;2.70;;;15.90;55.40;;;;;;4957052;29;20031;-81
2022/05/05 00:58:51;;;;;;;3.65;2.60;;;15.90;55.40;;;;;;4956216;29;20027;-78
2022/05/05 01:01:21;;;;;;;4.10;2.45;;;15.80;55.50;;;;;;4956504;29;20110;-81
2022/05/05 01:03:49;;;;;;;5.75;2.88;;;15.80;55.50;;;;;;4940154;29;20123;-79
2022/05/05 01:06:15;;;;;;;3.17;2.40;;;15.80;55.50;;;;;;4940703;29;20046;-80
2022/05/05 01:08:42;;;;;;;4.03;2.45;;;15.80;55.60;;;;;;4956252;29;20461;-79
2022/05/05 01:11:08;;;;;;;3.78;2.38;;;15.70;55.60;;;;;;4955970;29;20024;-80
2022/05/05 01:13:41;;;;;;;3.85;2.45;;;15.70;55.60;;;;;;4956218;29;20062;-79
2022/05/05 01:16:08;;;;;;;3.90;2.50;;;15.70;56.30;;;;;;4940382;29;20424;-82
2022/05/05 01:18:34;;;;;;;4.03;2.80;;;15.70;55.60;;;;;;4939471;29;20051;-78
2022/05/05 01:21:00;;;;;;;4.13;2.42;;;15.60;55.60;;;;;;4940349;29;20027;-78
2022/05/05 01:23:26;;;;;;;4.22;2.63;;;15.60;55.60;;;;;;4924305;29;20503;-79
2022/05/05 01:28:45;;;;;;;4.47;2.50;;;15.60;56.30;;;;;;4942598;29;20039;-79
2022/05/05 01:31:12;;;;;;;4.03;2.40;;;15.50;55.70;;;;;;4955754;29;20031;-78
2022/05/05 01:33:38;;;;;;;3.65;2.40;;;15.50;55.70;;;;;;4955926;29;20039;-79
2022/05/05 01:36:04;;;;;;;3.38;2.47;;;15.50;55.80;;;;;;4955874;29;20090;-79
2022/05/05 01:38:39;;;;;;;3.67;2.58;;;15.50;55.80;;;;;;4956266;29;20027;-79
2022/05/05 01:41:10;;;;;;;3.88;2.28;;;15.50;55.80;;;;;;4940293;29;20038;-80
2022/05/05 01:43:37;;;;;;;2.55;2.20;;;15.40;55.90;;;;;;4956107;29;20027;-77
2022/05/05 01:46:04;;;;;;;3.72;2.00;;;15.40;55.90;;;;;;4939521;29;20127;-79
2022/05/05 01:48:30;;;;;;;4.35;2.63;;;15.40;55.90;;;;;;4940667;29;20110;-79
2022/05/05 01:50:56;;;;;;;4.43;2.97;;;15.40;55.90;;;;;;4924392;29;20062;-81
2022/05/05 01:53:22;;;;;;;3.75;2.50;;;15.30;55.90;;;;;;4940272;29;20031;-78
2022/05/05 01:55:48;;;;;;;3.50;2.50;;;15.30;55.90;;;;;;4924166;29;20395;-78
2022/05/05 01:58:14;;;;;;;4.45;2.88;;;15.30;56.00;;;;;;4939360;28;20040;-79
2022/05/05 02:00:40;;;;;;;2.83;2.13;;;15.20;55.90;;;;;;4939493;29;20039;-79
2022/05/05 02:03:14;;;;;;;4.50;2.65;;;15.20;55.90;;;;;;4940302;29;20151;-78
2022/05/05 02:05:44;;;;;;;3.78;2.70;;;15.20;55.90;;;;;;4940279;29;20039;-78
2022/05/05 02:08:11;;;;;;;5.28;2.58;;;15.20;56.00;;;;;;4955215;29;20114;-82
2022/05/05 02:10:37;;;;;;;3.25;2.42;;;15.20;56.60;;;;;;4955533;29;20476;-80
2022/05/05 02:13:04;;;;;;;4.25;2.40;;;15.10;56.00;;;;;;4939146;29;20039;-82
2022/05/05 02:15:30;;;;;;;3.38;2.33;;;15.10;56.10;;;;;;4938901;29;20467;-80
2022/05/05 02:17:56;;;;;;;3.60;2.40;;;15.10;56.10;;;;;;4955392;29;20035;-79
2022/05/05 02:20:22;;;;;;;3.90;2.38;;;15.00;56.00;;;;;;4940080;29;20524;-81
2022/05/05 02:22:48;;;;;;;3.03;2.42;;;15.10;56.10;;;;;;4954876;29;20431;-80
2022/05/05 02:25:13;;;;;;;3.20;2.30;;;15.00;56.10;;;;;;4939633;29;20077;-79
2022/05/05 02:27:50;;;;;;;3.45;2.63;;;15.00;56.10;;;;;;4923208;29;20365;-79
2022/05/05 02:30:18;;;;;;;3.63;2.38;;;14.90;56.10;;;;;;4955152;29;20472;-79
2022/05/05 02:32:44;;;;;;;3.40;2.40;;;14.90;56.10;;;;;;4938735;29;20037;-79
2022/05/05 02:35:10;;;;;;;4.30;2.63;;;14.90;56.20;;;;;;4938679;29;20514;-79
2022/05/05 02:40:20;;;;;;;2.95;2.30;;;14.80;56.20;;;;;;4955375;29;20035;-79
2022/05/05 02:42:46;;;;;;;4.03;2.40;;;14.80;56.10;;;;;;4954631;29;20034;-79
2022/05/05 02:45:12;;;;;;;3.80;2.60;;;14.80;56.20;;;;;;4923602;29;20334;-82
2022/05/05 02:47:38;;;;;;;3.58;2.60;;;14.80;56.20;;;;;;4938662;29;20023;-79
2022/05/05 02:50:04;;;;;;;4.18;2.70;;;14.70;56.20;;;;;;4954409;29;20396;-81
2022/05/05 02:52:30;;;;;;;4.13;2.60;;;14.70;56.20;;;;;;4954866;29;20024;-79
2022/05/05 02:54:56;;;;;;;3.42;2.50;;;14.70;56.20;;;;;;4941301;29;20142;-79
2022/05/05 02:57:23;;;;;;;4.55;2.72;;;14.70;56.30;;;;;;4956430;29;20035;-78
2022/05/05 02:59:54;;;;;;;3.97;2.47;;;14.60;56.30;;;;;;4940648;29;20094;-78
2022/05/05 03:02:20;;;;;;;3.47;2.60;;;14.60;56.30;;;;;;4942480;29;20507;-78
2022/05/05 03:04:47;;;;;;;3.08;2.30;;;14.60;56.30;;;;;;4942587;29;20027;-78
2022/05/05 03:07:13;;;;;;;3.47;2.55;;;14.50;56.30;;;;;;4943538;29;20035;-80
2022/05/05 03:09:39;;;;;;;3.53;2.47;;;14.50;56.30;;;;;;4955491;29;20032;-78
2022/05/05 03:12:06;;;;;;;3.88;2.63;;;14.50;56.40;;;;;;4923134;29;20047;-79
2022/05/05 03:14:32;;;;;;;2.92;2.50;;;14.50;56.40;;;;;;4938919;29;20043;-81
2022/05/05 03:16:58;;;;;;;3.45;2.53;;;14.50;56.40;;;;;;4954102;29;20396;-79
2022/05/05 03:19:26;;;;;;;3.78;2.55;;;14.40;56.40;;;;;;4937780;29;20079;-79
2022/05/05 03:21:52;;;;;;;3.67;2.60;;;14.40;56.40;;;;;;4939479;29;20035;-77
2022/05/05 03:24:18;;;;;;;4.07;2.58;;;14.40;56.40;;;;;;4938953;29;20031;-79
2022/05/05 03:26:44;;;;;;;4.00;2.65;;;14.40;56.50;;;;;;4907098;29;20460;-78
2022/05/05 03:29:10;;;;;;;3.40;2.53;;;14.30;56.40;;;;;;4954119;29;20512;-78
2022/05/05 03:31:36;;;;;;;3.25;2.15;;;14.30;56.50;;;;;;4938219;29;20130;-80
2022/05/05 03:34:03;;;;;;;3.60;2.63;;;14.20;56.50;;;;;;4938619;29;20135;-79
2022/05/05 03:36:28;;;;;;;4.05;2.78;;;14.30;56.60;;;;;;4938051;29;20086;-79
2022/05/05 03:38:54;;;;;;;4.20;2.53;;;14.20;56.50;;;;;;4937929;29;20456;-79
2022/05/05 03:41:21;;;;;;;4.25;2.72;;;14.20;56.60;;;;;;4953856;29;20080;-79
2022/05/05 03:43:47;;;;;;;3.78;2.60;;;14.20;56.60;;;;;;4922246;29;20032;-80
2022/05/05 03:46:13;;;;;;;3.35;2.63;;;14.10;56.60;;;;;;4922666;29;20090;-80
2022/05/05 03:48:38;;;;;;;3.58;2.47;;;14.10;56.60;;;;;;4922725;29;20033;-81
2022/05/05 03:51:04;;;;;;;3.30;2.42;;;14.10;56.60;;;;;;4921934;29;20379;-81
2022/05/05 03:53:30;;;;;;;3.35;2.63;;;14.10;56.70;;;;;;4955125;29;20488;-81
2022/05/05 03:55:56;;;;;;;3.80;2.55;;;14.00;56.70;;;;;;4953958;29;20094;-81
2022/05/05 03:58:22;;;;;;;4.18;2.70;;;14.00;56.70;;;;;;4937839;29;20078;-80
2022/05/05 04:00:48;;;;;;;3.80;2.58;;;14.00;56.70;;;;;;4955154;28;20601;-80
2022/05/05 04:03:31;;;;;;;3.25;2.35;;;14.00;56.80;;;;;;4953555;29;20070;-79
2022/05/05 04:06:02;;;;;;;3.17;2.50;;;13.90;56.70;;;;;;4940174;29;20094;-79
2022/05/05 04:08:28;;;;;;;4.78;2.80;;;13.90;56.80;;;;;;4937859;29;20114;-79
2022/05/05 04:10:54;;;;;;;3.83;2.40;;;13.90;56.80;;;;;;4953500;29;20520;-79
2022/05/05 04:13:20;;;;;;;3.30;2.40;;;13.90;56.90;;;;;;4937315;29;20094;-78
2022/05/05 04:15:47;;;;;;;3.80;2.63;;;13.80;56.90;;;;;;4938451;29;20112;-82
2022/05/05 04:18:13;;;;;;;4.10;2.60;;;13.80;56.90;;;;;;4938045;29;20054;-79
2022/05/05 04:20:40;;;;;;;4.57;2.65;;;13.80;56.90;;;;;;4937308;29;20047;-80
2022/05/05 04:23:06;;;;;;;4.22;2.97;;;13.80;57.00;;;;;;4940092;29;20178;-79
2022/05/05 04:25:33;;;;;;;3.60;2.70;;;13.70;56.90;;;;;;4940932;29;20485;-77
2022/05/05 04:27:59;;;;;;;3.80;2.70;;;13.70;57.00;;;;;;4958189;28;20039;-77
2022/05/05 04:30:25;;;;;;;3.83;2.50;;;13.70;57.00;;;;;;4941657;29;20047;-78
2022/05/05 04:32:51;;;;;;;3.45;2.55;;;13.70;57.10;;;;;;4957838;28;20575;-79
2022/05/05 04:35:17;;;;;;;3.85;2.45;;;13.70;57.10;;;;;;4941804;29;20082;-81
2022/05/05 04:37:43;;;;;;;3.72;2.58;;;13.60;57.10;;;;;;4957080;29;20038;-78
2022/05/05 04:40:10;;;;;;;3.33;2.50;;;13.60;57.20;;;;;;4925277;29;20082;-80
2022/05/05 04:42:37;;;;;;;4.63;2.95;;;13.60;57.20;;;;;;4958549;28;20051;-77
2022/05/05 04:45:04;;;;;;;3.90;2.58;;;13.60;57.20;;;;;;4941018;29;20024;-78
2022/05/05 04:47:32;;;;;;;4.03;2.70;;;13.60;57.20;;;;;;4940658;29;20028;-77
2022/05/05 04:49:58;;;;;;;3.55;2.50;;;13.60;57.30;;;;;;4941513;29;20047;-78
2022/05/05 04:52:35;;;;;;;3.10;2.40;;;13.50;57.30;;;;;;4956657;29;20078;-80
2022/05/05 04:55:18;;;;;;;3.65;2.75;;;13.50;57.30;;;;;;4957066;29;20041;-79
2022/05/05 04:57:53;;;;;;;3.72;2.80;;;13.50;57.30;;;;;;4956551;29;20547;-80
2022/05/05 05:00:25;;;;;;;5.00;2.95;;;13.40;57.30;;;;;;4956672;28;20114;-80
2022/05/05 05:03:32;;;;;;;4.18;2.63;;;13.40;57.40;;;;;;4925866;29;20031;-79
2022/05/05 05:05:59;;;;;;;3.85;2.95;;;13.40;57.50;;;;;;4956489;29;20453;-79
2022/05/05 05:08:31;;;;;;;3.10;2.22;;;13.40;57.40;;;;;;4950311;29;20039;-78
2022/05/05 05:10:58;;;;;;;4.43;2.60;;;13.40;57.60;;;;;;4925984;29;20516;-79
2022/05/05 05:13:23;;;;;;;3.58;2.85;;;13.40;57.60;;;;;;4940325;29;20039;-79
2022/05/05 05:15:49;;;;;;;3.65;2.45;;;13.40;57.60;;;;;;4957452;28;20031;-80
2022/05/05 05:18:15;;;;;;;4.07;2.80;;;13.40;57.70;;;;;;4940869;29;20743;-79
2022/05/05 05:20:49;;;;;;;4.00;2.60;;;13.40;57.70;;;;;;4939628;29;20142;-77
2022/05/05 05:23:17;;;;;;;4.50;2.92;;;13.40;57.80;;;;;;4941270;29;20027;-79
2022/05/05 05:25:43;;;;;;;4.50;2.72;;;13.30;57.70;;;;;;4925580;29;20039;-78
2022/05/05 05:28:09;;;;;;;4.72;2.65;;;13.30;57.80;;;;;;4940213;29;20391;-78
2022/05/05 05:30:36;;;;;;;4.10;2.97;;;13.30;57.80;;;;;;4939739;29;20038;-80
2022/05/05 05:33:02;;;;;;;3.25;2.53;;;13.30;57.80;;;;;;4939253;29;20094;-79
2022/05/05 05:35:28;;;;;;;4.80;2.90;;;13.30;57.80;;;;;;4938982;29;20476;-80
2022/05/05 05:37:53;;;;;;;4.80;2.85;;;13.30;57.90;;;;;;4939701;29;20035;-79
2022/05/05 05:40:19;;;;;;;4.72;3.03;;;13.30;57.90;;;;;;4940384;29;20058;-79
2022/05/05 05:42:45;;;;;;;5.28;2.72;;;13.30;57.90;;;;;;4924790;29;20471;-79
2022/05/05 05:45:11;;;;;;;5.57;3.10;;;13.30;57.90;;;;;;4939957;29;20031;-79
2022/05/05 05:47:36;;;;;;;3.90;2.80;;;13.30;57.90;;;;;;4939698;29;20035;-78
2022/05/05 05:50:03;;;;;;;4.45;2.83;;;13.30;58.00;;;;;;4939379;29;20424;-79
2022/05/05 05:52:28;;;;;;;3.72;2.70;;;13.30;58.00;;;;;;4939306;29;20093;-78
2022/05/05 05:54:54;;;;;;;4.30;2.97;;;13.30;58.00;;;;;;4955168;29;20039;-80
2022/05/05 05:57:20;;;;;;;4.18;2.92;;;13.30;58.00;;;;;;4923391;29;20584;-79
2022/05/05 05:59:46;;;;;;;4.63;3.15;;;13.30;58.10;;;;;;4939308;29;20536;-78
2022/05/05 06:04:56;;;;;;;4.15;2.83;;;13.30;58.10;;;;;;4941765;29;20039;-79
2022/05/05 06:07:21;;;;;;;3.33;2.50;;;13.30;58.10;;;;;;4939511;29;20043;-79
2022/05/05 06:09:47;;;;;;;3.97;2.65;;;13.30;58.10;;;;;;4939999;29;20031;-79
2022/05/05 06:12:13;;;;;;;4.85;2.90;;;13.30;58.10;;;;;;4923750;29;20066;-79
2022/05/05 06:14:39;;;;;;;4.32;3.28;;;13.30;58.10;;;;;;4923704;29;20428;-78
2022/05/05 06:17:05;;;;;;;4.35;2.83;;;13.30;58.10;;;;;;4940132;29;20357;-78
2022/05/05 06:19:41;;;;;;;4.60;3.03;;;13.30;58.20;;;;;;4939232;29;20422;-78
2022/05/05 06:22:07;;;;;;;4.50;2.92;;;13.30;58.30;;;;;;4941287;29;20043;-77
2022/05/05 06:24:33;;;;;;;5.43;3.15;;;13.30;58.20;;;;;;4939709;29;20102;-80
2022/05/05 06:26:58;;;;;;;4.53;3.25;;;13.30;58.30;;;;;;4939429;29;20550;-79
2022/05/05 06:29:25;;;;;;;4.38;2.90;;;13.30;58.20;;;;;;4923499;29;20538;-78
2022/05/05 06:31:53;;;;;;;5.03;3.10;;;13.30;58.20;;;;;;4954634;29;20476;-78
2022/05/05 06:34:18;;;;;;;4.20;2.88;;;13.30;58.20;;;;;;4938932;29;20032;-79
2022/05/05 06:36:44;;;;;;;4.30;3.20;;;13.30;58.20;;;;;;4939033;29;20046;-80
2022/05/05 06:39:10;;;;;;;5.05;3.13;;;13.30;58.30;;;;;;4955315;29;20035;-79
2022/05/05 06:41:36;;;;;;;4.65;3.13;;;13.30;58.30;;;;;;4938882;29;20090;-78
2022/05/05 06:44:02;;;;;;;4.80;3.25;;;13.30;58.30;;;;;;4938562;29;20029;-78
2022/05/05 06:46:29;;;;;;;5.45;3.30;;;13.40;58.30;;;;;;4938568;29;20082;-80
2022/05/05 06:48:55;;;;;;;4.18;2.83;;;13.40;58.30;;;;;;4923053;29;20039;-79
2022/05/05 06:51:20;;;;;;;5.68;3.05;;;13.40;58.30;;;;;;4954401;29;20039;-79
2022/05/05 06:53:46;;;;;;;4.93;3.30;;;13.40;58.30;;;;;;4938380;29;20102;-80
2022/05/05 06:56:12;;;;;;;3.85;2.70;;;13.40;58.30;;;;;;4938893;29;20035;-80
2022/05/05 06:58:38;;;;;;;4.68;3.40;;;13.40;58.30;;;;;;4939260;29;20035;-80
2022/05/05 07:05:23;;;;;;;3.85;2.78;;;13.40;58.30;;;;;;4955836;29;20102;-79
2022/05/05 07:06:34;;;;;;;4.90;2.95;;;13.40;58.30;;;;;;4928255;29;20047;-80
2022/05/05 07:11:49;;;;;;;4.22;3.00;;;13.50;58.40;;;;;;4940948;29;20047;-79
2022/05/05 07:14:16;;;;;;;5.60;3.08;;;13.50;58.40;;;;;;4954171;29;20436;-80
2022/05/05 07:16:42;;;;;;;5.15;2.97;;;13.50;58.50;;;;;;4955325;28;20038;-79
2022/05/05 07:19:09;;;;;;;4.40;3.20;;;13.50;58.50;;;;;;4938288;29;20035;-78
2022/05/05 07:21:39;;;;;;;5.80;3.47;;;13.60;58.50;;;;;;4907466;29;20027;-80
2022/05/05 07:24:05;;;;;;;4.63;3.60;;;13.50;58.50;;;;;;4938521;29;20039;-80
2022/05/05 07:26:31;;;;;;;4.75;3.08;;;13.60;58.60;;;;;;4938033;29;20475;-82
2022/05/05 07:28:57;;;;;;;6.65;3.65;;;13.60;58.60;;;;;;4938220;29;20042;-79
2022/05/05 07:31:23;;;;;;;5.13;3.83;;;13.60;58.70;;;;;;4938287;29;20035;-80
2022/05/05 07:33:48;;;;;;;5.82;3.55;;;13.60;58.70;;;;;;4922439;29;20042;-79
2022/05/05 07:36:14;;;;;;;4.75;3.25;;;13.60;58.70;;;;;;4922575;29;20031;-81
2022/05/05 07:38:40;;;;;;;6.45;3.42;;;13.70;58.80;;;;;;4954027;29;20031;-79
2022/05/05 07:41:06;;;;;;;6.20;4.13;;;13.70;58.80;;;;;;4938239;29;20034;-81
2022/05/05 07:43:32;;;;;;;5.90;3.55;;;13.80;58.90;;;;;;4954575;29;20039;-80
2022/05/05 07:46:18;;;;;;;5.45;3.70;;;13.80;59.00;;;;;;4938723;29;20031;-80
2022/05/05 07:48:45;;;;;;;7.28;3.83;;;13.80;59.10;;;;;;4938186;29;20042;-80
2022/05/05 07:51:12;;;;;;;6.00;3.55;;;13.90;59.60;;;;;;4938666;29;20023;-80
2022/05/05 07:53:39;;;;;;;5.90;3.15;;;13.90;59.00;;;;;;4953644;29;20495;-80
2022/05/05 07:56:06;;;;;;;5.13;3.72;;;14.00;59.10;;;;;;4937703;28;20054;-81
2022/05/05 07:58:34;;;;;;;6.28;3.95;;;14.10;59.10;;;;;;4940875;29;20106;-82
2022/05/05 08:01:00;;;;;;;6.43;4.00;;;14.10;59.10;;;;;;4941642;29;20031;-79
2022/05/05 08:03:28;;;;;;;5.60;3.58;;;14.20;59.20;;;;;;4941413;29;20046;-79
2022/05/05 08:05:54;;;;;;;5.15;3.50;;;14.20;59.20;;;;;;4926037;29;20054;-80
2022/05/05 08:08:26;;;;;;;6.53;3.65;;;14.40;59.20;;;;;;4925518;29;20065;-79
2022/05/05 08:10:56;;;;;;;5.28;3.78;;;14.40;59.30;;;;;;4941726;29;20131;-80
2022/05/05 08:13:24;;;;;;;5.53;3.65;;;14.40;59.20;;;;;;4941539;29;20131;-80
2022/05/05 08:16:23;;;;;;;5.68;3.55;;;14.50;59.30;;;;;;4940927;29;20490;-79
2022/05/05 08:18:58;;;;;;;5.50;3.55;;;14.60;59.40;;;;;;4940526;29;20063;-80
2022/05/05 08:21:44;;;;;;;5.93;4.05;;;14.70;59.40;;;;;;4925368;29;20085;-81
2022/05/05 08:30:36;;;;;;;4.53;3.42;;;14.90;59.50;;;;;;4958712;29;20032;-80
2022/05/05 08:33:10;;;;;;;5.20;3.47;;;15.00;59.50;;;;;;4929425;29;20126;-83
2022/05/05 08:35:38;;;;;;;7.70;3.90;;;15.10;59.60;;;;;;4956798;29;20127;-83
2022/05/05 08:38:04;;;;;;;6.15;3.88;;;15.20;59.70;;;;;;4925255;29;20126;-80
2022/05/05 08:40:33;;;;;;;5.53;3.60;;;15.20;59.70;;;;;;4940680;29;20118;-78
2022/05/05 08:47:10;;;;;;;5.30;3.60;;;15.40;59.80;;;;;;4957466;29;20086;-78
2022/05/05 08:54:01;;;;;;;5.28;3.40;;;15.60;59.70;;;;;;4934190;29;20111;-79
2022/05/05 08:57:12;;;;;;;5.30;3.38;;;15.70;59.60;;;;;;4923191;29;20048;-78
2022/05/05 09:00:36;;;;;;;5.22;3.40;;;15.80;59.70;;;;;;4897993;29;20068;-78
2022/05/05 09:03:51;;;;;;;5.85;3.45;;;15.90;59.80;;;;;;4838216;29;20057;-78
2022/05/05 09:07:01;;;;;;;5.50;3.83;;;16.10;59.90;;;;;;4867975;29;20103;-78
2022/05/05 09:10:12;;;;;;;5.38;3.65;;;16.20;59.80;;;;;;4864194;29;20041;-80
2022/05/05 09:13:45;;;;;;;5.03;3.22;;;16.30;60.00;;;;;;4878189;29;20108;-80
2022/05/05 09:20:29;;;;;;;5.63;3.90;;;16.50;59.80;;;;;;4825434;29;20070;-80
2022/05/05 09:28:13;;;;;;;5.55;3.55;;;16.70;59.90;;;;;;4806036;29;20111;-79
2022/05/05 09:31:24;;;;;;;7.20;4.75;;;16.90;60.00;;;;;;4833955;29;20045;-80
2022/05/05 09:34:11;;;;;;;6.68;4.32;;;16.90;60.10;;;;;;4841506;29;20527;-80
2022/05/05 09:37:27;;;;;;;6.40;4.20;;;17.00;60.00;;;;;;4800288;29;20046;-79
2022/05/05 09:41:45;;;;;;;5.20;3.97;;;17.10;60.10;;;;;;4789910;29;20300;-80
2022/05/05 09:44:58;;;;;;;4.65;3.40;;;17.20;60.10;;;;;;4768460;29;20053;-79
2022/05/05 09:47:41;;;;;;;5.85;4.00;;;17.40;60.10;;;;;;4793534;29;20090;-78
2022/05/05 09:50:50;;;;;;;5.07;3.75;;;17.40;59.90;;;;;;4807723;29;20099;-80
2022/05/05 10:02:04;;;;;;;6.15;3.90;;;17.70;59.80;;;;;;4934820;29;20050;-79
2022/05/05 10:05:47;;;;;;;7.25;4.30;;;17.80;59.60;;;;;;4919319;29;20083;-79
2022/05/05 10:09:02;;;;;;;6.07;3.63;;;17.90;59.60;;;;;;4918544;29;20102;-81
2022/05/05 10:12:36;;;;;;;5.95;3.72;;;18.10;59.40;;;;;;4890494;29;20054;-80
2022/05/05 10:16:26;;;;;;;5.30;3.57;;;18.10;59.40;;;;;;4846708;29;20136;-80
2022/05/05 10:19:15;;;;;;;6.03;4.30;;;18.30;59.30;;;;;;4864819;29;20037;-81
2022/05/05 10:22:13;;;;;;;6.97;4.50;;;18.30;59.00;;;;;;4862548;29;20125;-84
2022/05/05 10:25:08;;;;;;;6.43;4.15;;;18.40;59.10;;;;;;4862686;29;20045;-81
2022/05/05 10:27:48;;;;;;;6.30;4.30;;;18.50;59.00;;;;;;4895055;29;20127;-80
2022/05/05 10:30:36;;;;;;;6.70;4.53;;;18.60;58.90;;;;;;4896873;29;20074;-81
2022/05/05 10:33:08;;;;;;;6.55;4.10;;;18.70;58.90;;;;;;4865741;29;20044;-82
2022/05/05 10:35:45;;;;;;;6.40;4.22;;;18.80;58.80;;;;;;4881863;29;20502;-80
2022/05/05 10:38:40;;;;;;;6.15;4.00;;;18.80;58.80;;;;;;4881220;29;20115;-82
2022/05/05 10:41:31;;;;;;;5.70;3.88;;;18.90;58.80;;;;;;4861395;29;20055;-83
2022/05/05 10:47:24;;;;;;;6.20;4.20;;;19.10;58.50;;;;;;4934062;29;20036;-82
2022/05/05 10:50:02;;;;;;;5.10;3.97;;;19.20;58.20;;;;;;4918547;29;20151;-79
2022/05/05 10:52:29;;;;;;;6.00;4.40;;;19.30;58.10;;;;;;4917127;29;20040;-82
2022/05/05 10:55:18;;;;;;;5.90;4.28;;;19.40;58.10;;;;;;4918623;29;20107;-83
2022/05/05 10:58:18;;;;;;;6.47;4.30;;;19.40;57.90;;;;;;4888882;29;20047;-80
2022/05/05 11:01:05;;;;;;;6.40;4.50;;;19.50;57.80;;;;;;4902356;29;20475;-80
2022/05/05 11:03:31;;;;;;;6.35;4.63;;;19.60;57.70;;;;;;4889441;29;20449;-78
2022/05/05 11:06:15;;;;;;;5.70;3.95;;;19.70;57.60;;;;;;4887246;29;20123;-82
2022/05/05 11:08:53;;;;;;;6.30;4.40;;;19.70;57.60;;;;;;4902498;29;20028;-83
2022/05/05 11:23:04;;;;;;;5.13;3.67;;;20.20;57.30;;;;;;4954600;29;20042;-83
2022/05/05 11:25:31;;;;;;;5.88;4.28;;;20.20;57.20;;;;;;4922840;29;20031;-82
2022/05/05 11:27:58;;;;;;;5.43;3.83;;;20.30;57.10;;;;;;4938303;29;20023;-84
2022/05/05 11:30:24;;;;;;;6.03;4.03;;;20.40;57.10;;;;;;4938317;29;20399;-83
2022/05/05 11:32:51;;;;;;;6.60;4.15;;;20.50;57.00;;;;;;4942134;29;20058;-82
2022/05/05 11:35:22;;;;;;;6.15;3.92;;;20.60;56.90;;;;;;4942027;29;20074;-82
2022/05/05 11:37:49;;;;;;;6.00;4.07;;;20.70;56.90;;;;;;4941715;29;20057;-80
2022/05/05 11:40:23;;;;;;;5.95;4.32;;;20.70;56.80;;;;;;4957621;29;20518;-80
2022/05/05 11:46:08;;;;;;;5.47;3.85;;;20.90;56.70;;;;;;4945399;29;20039;-78
2022/05/05 11:48:56;;;;;;;5.43;3.90;;;21.00;56.70;;;;;;4958115;29;20050;-79
2022/05/05 11:51:55;;;;;;;6.07;4.10;;;21.00;56.60;;;;;;4956320;29;20063;-79
2022/05/05 11:54:56;;;;;;;5.93;3.95;;;21.10;56.50;;;;;;4958432;29;20046;-78
2022/05/05 12:01:36;;;;;;;6.90;4.13;;;21.20;56.50;;;;;;4956198;29;20039;-78
2022/05/05 12:08:01;;;;;;;5.50;4.05;;;21.50;56.40;;;;;;4957218;29;20054;-77
2022/05/05 12:10:59;;;;;;;4.97;3.70;;;21.50;56.40;;;;;;4924114;29;20058;-77
2022/05/05 12:13:40;;;;;;;5.35;3.47;;;21.60;56.40;;;;;;4956117;28;20039;-79
2022/05/05 12:16:18;;;;;;;6.50;4.20;;;21.70;56.30;;;;;;4925332;29;20047;-78
2022/05/05 12:22:14;;;;;;;5.97;4.22;;;21.80;56.10;;;;;;4926760;29;20075;-79
2022/05/05 12:26:12;;;;;;;5.63;3.90;;;21.90;56.10;;;;;;4948618;29;20070;-78
2022/05/05 12:29:50;;;;;;;5.88;3.92;;;22.00;56.10;;;;;;4940303;29;20142;-79
2022/05/05 12:32:31;;;;;;;6.05;3.75;;;22.10;56.10;;;;;;4914172;29;20047;-78
2022/05/05 12:35:52;;;;;;;6.45;4.18;;;22.20;55.90;;;;;;4939816;29;20048;-79
2022/05/05 12:39:02;;;;;;;6.65;4.05;;;22.20;55.90;;;;;;4939224;29;20039;-79
2022/05/05 12:42:39;;;;;;;5.60;3.90;;;22.30;56.00;;;;;;4940790;29;20036;-80
2022/05/05 12:46:05;;;;;;;5.80;3.90;;;22.30;55.80;;;;;;4928221;29;20498;-79
2022/05/05 12:49:10;;;;;;;4.53;3.40;;;22.40;55.80;;;;;;4938945;29;20039;-79
2022/05/05 12:59:36;;;;;;;5.10;3.60;;;22.40;55.80;;;;;;4921183;29;20130;-79
2022/05/05 13:00:25;;;;;;;5.97;4.00;;;22.60;55.70;;;;;;4939516;29;20035;-81
2022/05/05 13:02:51;;;;;;;5.78;4.10;;;22.70;55.70;;;;;;4923867;29;20381;-81
2022/05/05 13:05:23;;;;;;;6.35;4.30;;;22.70;55.50;;;;;;4907533;29;20495;-81
2022/05/05 13:07:49;;;;;;;6.00;4.15;;;22.80;55.40;;;;;;4923892;29;20027;-81
2022/05/05 13:10:15;;;;;;;5.57;4.05;;;22.80;55.30;;;;;;4923038;29;20459;-82
2022/05/05 13:12:40;;;;;;;5.35;3.92;;;22.90;55.30;;;;;;4932072;29;20098;-81
2022/05/05 13:15:07;;;;;;;6.60;4.65;;;22.90;55.20;;;;;;4940816;29;20090;-81
2022/05/05 13:17:34;;;;;;;5.78;4.35;;;23.00;55.20;;;;;;4924717;29;20122;-81
2022/05/05 13:20:01;;;;;;;6.13;4.70;;;23.00;55.10;;;;;;4956089;29;20023;-81
2022/05/05 13:22:29;;;;;;;6.53;4.70;;;23.10;55.00;;;;;;4939866;29;20138;-80
2022/05/05 13:24:55;;;;;;;6.55;4.43;;;23.10;55.00;;;;;;4940460;29;20027;-80
2022/05/05 13:27:21;;;;;;;6.05;4.25;;;23.20;55.00;;;;;;4939703;29;20435;-81
2022/05/05 13:29:47;;;;;;;6.00;3.95;;;23.20;54.90;;;;;;4940515;29;20118;-81
2022/05/05 13:32:13;;;;;;;6.03;4.03;;;23.20;54.80;;;;;;4939682;29;20453;-81
2022/05/05 13:34:39;;;;;;;5.60;4.22;;;23.30;54.80;;;;;;4923823;29;20039;-81
2022/05/05 13:37:05;;;;;;;6.80;4.28;;;23.30;54.80;;;;;;4940294;29;20031;-83
2022/05/05 13:39:38;;;;;;;6.75;4.80;;;23.30;54.80;;;;;;4939818;29;20028;-80
2022/05/05 13:42:05;;;;;;;6.13;4.43;;;23.40;54.80;;;;;;4941327;29;20039;-78
2022/05/05 13:44:31;;;;;;;6.63;4.65;;;23.40;54.70;;;;;;4923711;29;20035;-78
2022/05/05 13:46:58;;;;;;;6.13;4.40;;;23.50;54.70;;;;;;4923201;29;20047;-78
2022/05/05 13:49:30;;;;;;;5.90;4.28;;;23.50;54.70;;;;;;4940285;29;20062;-80
2022/05/05 13:51:56;;;;;;;6.47;4.15;;;23.50;54.60;;;;;;4939310;29;20031;-78
2022/05/05 13:54:22;;;;;;;5.95;4.30;;;23.60;54.60;;;;;;4938585;29;20031;-78
2022/05/05 13:56:48;;;;;;;5.50;4.28;;;23.60;54.60;;;;;;4939085;29;20477;-79
2022/05/05 13:59:13;;;;;;;6.07;4.45;;;23.60;54.60;;;;;;4955215;29;20114;-79
2022/05/05 14:01:50;;;;;;;5.35;3.78;;;23.60;54.60;;;;;;4939107;29;20031;-80
2022/05/05 14:04:25;;;;;;;5.95;3.90;;;23.70;54.60;;;;;;4908956;29;20194;-78
2022/05/05 14:06:52;;;;;;;6.13;4.32;;;23.70;54.50;;;;;;4939119;29;20051;-79
2022/05/05 14:12:11;;;;;;;5.40;4.20;;;23.80;54.50;;;;;;4955688;29;20039;-81
2022/05/05 14:14:38;;;;;;;6.15;4.05;;;23.80;54.40;;;;;;4939056;29;20051;-80
2022/05/05 14:17:05;;;;;;;6.70;4.53;;;23.80;54.50;;;;;;4954512;29;20135;-79
2022/05/05 14:19:34;;;;;;;5.15;3.90;;;23.80;54.40;;;;;;4938903;29;20034;-80
2022/05/05 14:22:01;;;;;;;5.55;3.95;;;23.90;54.40;;;;;;4938472;29;20051;-81
2022/05/05 14:24:27;;;;;;;5.53;3.95;;;23.90;54.40;;;;;;4954944;29;20035;-81
2022/05/05 14:26:56;;;;;;;6.47;4.55;;;23.90;54.40;;;;;;4955353;29;20019;-81
2022/05/05 14:29:24;;;;;;;5.65;4.18;;;23.90;54.40;;;;;;4939419;29;20050;-83
2022/05/05 14:31:52;;;;;;;6.00;4.22;;;23.90;54.40;;;;;;4941724;29;20110;-80
2022/05/05 14:34:20;;;;;;;6.03;4.13;;;23.90;54.30;;;;;;4954385;29;20047;-82
2022/05/05 14:36:46;;;;;;;5.43;3.95;;;23.90;54.30;;;;;;4942255;29;20023;-82
2022/05/05 14:39:12;;;;;;;5.80;4.13;;;23.90;54.30;;;;;;4937358;29;20043;-80
2022/05/05 14:41:38;;;;;;;6.43;4.30;;;24.00;54.30;;;;;;4938586;29;20110;-78
2022/05/05 14:44:05;;;;;;;7.05;4.53;;;24.00;54.40;;;;;;4939147;29;20081;-81
2022/05/05 14:46:32;;;;;;;6.03;3.92;;;24.00;54.40;;;;;;4923063;29;20464;-82
2022/05/05 14:49:00;;;;;;;5.75;4.35;;;23.90;54.50;;;;;;4938752;29;20046;-80